Tigerton, Wisconsin
Current Conditions -  °F | °C
As of 4:35 PM on Friday 28 Nov 2014 (Local Time) from KCLI Reporting Station
Light Snow Light Snow  
Wind Chill: 21°   Ceiling: 4300
Heat Index: 21°   Visibility: 5mi
Dew Point: 18°   Wind: 3mph
Humidity: 86%   Direction: 70°ENE
Pressure: 29.95"   Gusts: NA
Location:  44.74°N, 89.06°W
Report Text: KCLI 282235Z AUTO 07003KT 5SM -SN BKN043 OVC055 M06/M08 A2995 RMK AO2
Loading
Personal Weather Stations






























Interactive Weather Map New forecast layout! Learn more

10-Day Weather Forecast

Advertisements
Track Severe Weather on mobile